Time;durP1;ratioP1;P1;durP2;ratioP2;P2;SDS_P1;SDS_P2;PMS_P1;PMS_P2;Temp;Humidity;BMP_temperature;BMP_pressure;BME280_temperature;BME280_humidity;BME280_pressure;Samples;Min_cycle;Max_cycle;Signal;HPM_P1;HPM_P2
2021/12/02 00:00:28;;;;;;;3.22;1.60;;;;;;;8.05;100.00;98555.19;4975626;28;20109;-68
2021/12/02 00:02:53;;;;;;;2.70;1.35;;;;;;;8.03;100.00;98552.63;4985234;28;20406;-68
2021/12/02 00:05:19;;;;;;;3.05;1.30;;;;;;;8.06;100.00;98562.19;4993738;28;20026;-68
2021/12/02 00:07:44;;;;;;;3.58;1.58;;;;;;;8.07;100.00;98558.63;4992225;28;20081;-68
2021/12/02 00:10:11;;;;;;;5.03;1.30;;;;;;;8.04;100.00;98554.31;4978136;28;20033;-68
2021/12/02 00:12:36;;;;;;;4.40;1.27;;;;;;;8.06;100.00;98556.91;4975552;28;20137;-68
2021/12/02 00:15:07;;;;;;;2.55;1.40;;;;;;;8.01;100.00;98551.81;4982144;28;20110;-68
2021/12/02 00:17:37;;;;;;;3.05;1.30;;;;;;;8.04;100.00;98549.03;4974025;28;20023;-68
2021/12/02 00:23:27;;;;;;;2.97;1.52;;;;;;;7.94;100.00;98547.72;4984826;28;20042;-68
2021/12/02 00:25:53;;;;;;;6.38;1.42;;;;;;;7.95;100.00;98540.66;4974963;28;20041;-68
2021/12/02 00:28:19;;;;;;;3.40;1.25;;;;;;;7.91;100.00;98536.41;4977342;28;20026;-68
2021/12/02 00:30:44;;;;;;;4.20;1.88;;;;;;;7.89;100.00;98544.44;4989126;28;20117;-68
2021/12/02 00:33:11;;;;;;;3.30;1.73;;;;;;;7.88;100.00;98540.06;4994033;28;20026;-68
2021/12/02 00:35:37;;;;;;;5.97;1.40;;;;;;;7.74;100.00;98545.13;4992429;28;20097;-68
2021/12/02 00:38:02;;;;;;;7.60;2.13;;;;;;;7.80;100.00;98555.44;4992367;28;20026;-68
2021/12/02 00:40:28;;;;;;;3.80;1.63;;;;;;;7.78;100.00;98540.53;4985216;28;20038;-68
2021/12/02 00:42:54;;;;;;;3.03;1.02;;;;;;;7.81;100.00;98556.28;4991817;28;20053;-68
2021/12/02 00:45:19;;;;;;;2.33;1.17;;;;;;;7.81;100.00;98558.94;4998875;28;20026;-68
2021/12/02 00:47:46;;;;;;;2.00;1.15;;;;;;;7.73;100.00;98554.00;4984338;28;20061;-68
2021/12/02 00:50:11;;;;;;;2.53;1.10;;;;;;;7.81;100.00;98557.16;4991951;28;20034;-68
2021/12/02 00:52:39;;;;;;;3.22;1.27;;;;;;;7.63;100.00;98544.75;4984316;28;20030;-68
2021/12/02 00:55:06;;;;;;;1.45;1.00;;;;;;;7.69;100.00;98564.78;4975523;28;20058;-68
2021/12/02 00:57:32;;;;;;;1.33;0.88;;;;;;;7.68;100.00;98571.88;4987068;28;20033;-68
2021/12/02 01:00:03;;;;;;;2.22;0.90;;;;;;;7.61;100.00;98575.69;4977736;28;20031;-68
2021/12/02 01:02:29;;;;;;;1.65;1.10;;;;;;;7.61;100.00;98580.97;4993092;28;20037;-68
2021/12/02 01:04:55;;;;;;;2.65;1.08;;;;;;;7.62;100.00;98577.44;4992564;28;20038;-68
2021/12/02 01:07:21;;;;;;;1.15;1.05;;;;;;;7.65;100.00;98582.59;4993038;28;20375;-68
2021/12/02 01:09:50;;;;;;;1.30;1.10;;;;;;;7.65;100.00;98572.00;4982598;28;20022;-68
2021/12/02 01:12:17;;;;;;;2.78;2.35;;;;;;;7.57;100.00;98568.84;4980134;28;20167;-68
2021/12/02 01:14:46;;;;;;;1.80;1.15;;;;;;;7.70;100.00;98577.09;4989878;28;20026;-68
2021/12/02 01:17:12;;;;;;;1.10;1.00;;;;;;;7.74;100.00;98587.47;4992510;28;20398;-68
2021/12/02 01:19:37;;;;;;;1.02;0.93;;;;;;;7.72;100.00;98578.75;4991926;28;20041;-68
2021/12/02 01:22:04;;;;;;;1.38;1.05;;;;;;;7.66;100.00;98579.00;4979659;28;20498;-68
2021/12/02 01:24:31;;;;;;;5.22;1.15;;;;;;;7.66;100.00;98568.41;4972596;28;20030;-69
2021/12/02 01:26:57;;;;;;;1.33;0.98;;;;;;;7.63;100.00;98571.19;4992080;28;20034;-69
2021/12/02 01:29:24;;;;;;;2.67;1.33;;;;;;;7.65;100.00;98589.66;4982104;28;20069;-69
2021/12/02 01:31:53;;;;;;;3.50;1.65;;;;;;;7.69;100.00;98588.59;4982974;28;20026;-69
2021/12/02 01:34:24;;;;;;;4.32;1.50;;;;;;;7.67;100.00;98586.03;4991879;28;20049;-69
2021/12/02 01:36:52;;;;;;;5.13;2.17;;;;;;;7.62;100.00;98588.00;4992844;28;20109;-69
2021/12/02 01:39:17;;;;;;;3.47;1.80;;;;;;;7.65;100.00;98593.16;4994924;28;20474;-69
2021/12/02 01:42:13;;;;;;;4.60;2.58;;;;;;;7.55;100.00;98593.63;4984725;28;20037;-69
2021/12/02 01:44:41;;;;;;;5.53;2.00;;;;;;;7.54;100.00;98599.84;4988206;28;20785;-69
2021/12/02 01:47:12;;;;;;;5.80;1.98;;;;;;;7.45;100.00;98590.50;4983667;28;20023;-69
2021/12/02 01:49:41;;;;;;;3.50;1.85;;;;;;;7.48;100.00;98589.53;4991386;28;20038;-69
2021/12/02 01:52:10;;;;;;;2.58;1.38;;;;;;;7.45;100.00;98605.53;4988815;28;20049;-69
2021/12/02 01:54:43;;;;;;;4.40;2.15;;;;;;;7.42;100.00;98595.94;4991602;28;20041;-69
2021/12/02 01:57:16;;;;;;;7.23;2.07;;;;;;;7.41;100.00;98596.00;4986199;28;20050;-69
2021/12/02 01:59:47;;;;;;;2.70;1.73;;;;;;;7.41;100.00;98590.72;4986767;28;20022;-69
2021/12/02 02:02:19;;;;;;;3.65;1.10;;;;;;;7.39;100.00;98588.16;4982106;28;20757;-69
2021/12/02 02:04:46;;;;;;;2.75;1.20;;;;;;;7.30;100.00;98583.22;4991073;28;20386;-69
2021/12/02 02:07:14;;;;;;;5.20;1.33;;;;;;;7.37;100.00;98583.81;4987608;28;20026;-69
2021/12/02 02:09:40;;;;;;;1.63;1.20;;;;;;;7.39;100.00;98581.97;4991831;28;20026;-69
2021/12/02 02:12:08;;;;;;;1.75;1.10;;;;;;;7.40;100.00;98587.22;4991266;28;20034;-69
2021/12/02 02:14:34;;;;;;;2.85;1.20;;;;;;;7.37;100.00;98581.19;4981879;28;20084;-69
2021/12/02 02:17:08;;;;;;;2.25;1.15;;;;;;;7.30;100.00;98564.72;4993104;28;20052;-69
2021/12/02 02:19:34;;;;;;;4.35;1.60;;;;;;;7.34;100.00;98579.53;4988553;28;20025;-69
2021/12/02 02:21:59;;;;;;;2.45;1.30;;;;;;;7.37;100.00;98575.91;4976359;28;20506;-70
2021/12/02 02:24:25;;;;;;;1.55;1.05;;;;;;;7.34;100.00;98579.53;4972210;28;20082;-70
2021/12/02 02:26:51;;;;;;;1.65;1.00;;;;;;;7.25;100.00;98571.97;4990596;28;20462;-70
2021/12/02 02:29:18;;;;;;;2.88;1.10;;;;;;;7.28;100.00;98577.13;4991168;28;20465;-70
2021/12/02 02:31:44;;;;;;;1.95;1.08;;;;;;;7.32;100.00;98572.59;4988359;28;20541;-70
2021/12/02 02:34:11;;;;;;;2.72;0.98;;;;;;;7.31;100.00;98577.03;4991542;28;20084;-70
2021/12/02 02:36:41;;;;;;;1.20;0.93;;;;;;;7.27;100.00;98559.56;4988921;28;20015;-70
2021/12/02 02:39:08;;;;;;;1.85;1.15;;;;;;;7.35;100.00;98562.75;4986198;28;20030;-70
2021/12/02 02:41:39;;;;;;;5.00;1.40;;;;;;;7.47;100.00;98577.22;4971125;28;20394;-69
2021/12/02 02:44:05;;;;;;;2.95;0.90;;;;;;;7.52;100.00;98573.47;4989759;28;20146;-69
2021/12/02 02:46:37;;;;;;;2.08;0.80;;;;;;;7.55;100.00;98568.03;4991917;28;20182;-69
2021/12/02 02:49:05;;;;;;;2.53;1.10;;;;;;;7.50;100.00;98550.63;4991663;28;20105;-69
2021/12/02 02:51:32;;;;;;;1.20;1.10;;;;;;;7.57;100.00;98558.25;4990532;28;20030;-69
2021/12/02 02:54:04;;;;;;;1.70;1.00;;;;;;;7.66;100.00;98564.94;4987920;28;20056;-69
2021/12/02 02:56:31;;;;;;;2.45;1.02;;;;;;;7.69;100.00;98572.72;4991344;28;20101;-69
2021/12/02 03:06:34;;;;;;;2.53;1.33;;;;;;;7.69;100.00;98573.56;4976543;28;20034;-69
2021/12/02 03:09:12;;;;;;;0.93;0.93;;;;;;;7.87;100.00;98580.69;4978689;28;20074;-69
2021/12/02 03:11:48;;;;;;;5.65;1.25;;;;;;;8.02;100.00;98550.88;4975432;28;20054;-69
2021/12/02 03:14:19;;;;;;;2.60;1.23;;;;;;;8.11;99.54;98559.34;4978339;28;20174;-69
2021/12/02 03:16:44;;;;;;;2.33;1.00;;;;;;;8.07;99.65;98566.59;4989144;28;20060;-69
2021/12/02 03:19:15;;;;;;;2.65;1.15;;;;;;;8.07;100.00;98565.72;4993450;28;20030;-69
2021/12/02 03:21:41;;;;;;;1.10;1.00;;;;;;;8.16;99.75;98567.94;4994328;28;20022;-69
2021/12/02 03:24:07;;;;;;;2.83;1.40;;;;;;;7.96;100.00;98574.13;4994563;28;20037;-69
2021/12/02 03:26:32;;;;;;;2.00;1.05;;;;;;;8.00;100.00;98568.66;4985945;28;20027;-69
2021/12/02 03:28:59;;;;;;;2.30;1.00;;;;;;;7.90;100.00;98564.69;4994199;28;20023;-69
2021/12/02 03:31:24;;;;;;;4.78;1.20;;;;;;;7.73;100.00;98567.22;4990203;28;20085;-69
2021/12/02 03:33:51;;;;;;;2.13;1.10;;;;;;;7.72;100.00;98573.47;4986166;28;20129;-69
2021/12/02 03:36:17;;;;;;;4.20;1.67;;;;;;;7.97;100.00;98568.75;4990510;28;20105;-69
2021/12/02 03:38:44;;;;;;;2.47;1.20;;;;;;;7.82;100.00;98532.41;4993756;28;20034;-69
2021/12/02 03:41:10;;;;;;;1.95;0.93;;;;;;;7.91;100.00;98557.59;4990860;28;20089;-69
2021/12/02 03:43:36;;;;;;;3.67;1.20;;;;;;;8.01;100.00;98580.06;4994429;28;20022;-69
2021/12/02 03:46:03;;;;;;;1.48;1.02;;;;;;;7.98;99.70;98570.50;4993792;28;20033;-69
2021/12/02 03:48:28;;;;;;;4.43;1.52;;;;;;;7.96;100.00;98566.19;4985259;28;20026;-69
2021/12/02 03:50:55;;;;;;;2.42;1.20;;;;;;;7.96;100.00;98561.75;4974694;28;20045;-69
2021/12/02 03:53:20;;;;;;;2.28;1.05;;;;;;;7.54;100.00;98568.97;4975209;28;20030;-69
2021/12/02 03:55:46;;;;;;;3.60;1.33;;;;;;;7.75;100.00;98568.03;4975970;28;20073;-69
2021/12/02 03:58:11;;;;;;;1.58;0.90;;;;;;;7.76;100.00;98553.84;4986285;28;20022;-69
2021/12/02 04:00:37;;;;;;;4.35;1.65;;;;;;;7.81;100.00;98553.63;4993423;28;20019;-69
2021/12/02 04:03:03;;;;;;;2.17;1.20;;;;;;;7.81;100.00;98561.56;4984506;28;20022;-69
2021/12/02 04:05:28;;;;;;;2.92;1.27;;;;;;;7.83;100.00;98559.72;4993903;28;20030;-70
2021/12/02 04:07:53;;;;;;;2.25;1.50;;;;;;;7.46;100.00;98564.94;4989213;28;20816;-70
2021/12/02 04:10:20;;;;;;;7.50;1.02;;;;;;;7.37;100.00;98571.47;4987742;28;20046;-70
2021/12/02 04:12:58;;;;;;;1.98;1.30;;;;;;;7.24;100.00;98564.13;4992947;28;20160;-70
2021/12/02 04:15:28;;;;;;;5.80;1.20;;;;;;;7.28;100.00;98571.84;4985538;28;20101;-70
2021/12/02 04:17:53;;;;;;;7.05;1.60;;;;;;;7.26;100.00;98565.78;4974420;28;20074;-70
2021/12/02 04:20:22;;;;;;;9.63;1.23;;;;;;;7.21;100.00;98559.84;4974528;28;20419;-70
2021/12/02 04:22:50;;;;;;;6.72;1.80;;;;;;;7.20;100.00;98560.75;4979881;28;20117;-70
2021/12/02 04:25:17;;;;;;;4.68;1.70;;;;;;;7.20;100.00;98565.19;5010119;28;20679;-70
2021/12/02 04:27:44;;;;;;;4.35;2.22;;;;;;;7.18;100.00;98570.50;5012437;28;20035;-70
2021/12/02 04:30:12;;;;;;;5.20;1.25;;;;;;;7.10;100.00;98562.06;5004867;28;20026;-69
2021/12/02 04:32:39;;;;;;;5.75;1.48;;;;;;;7.12;100.00;98576.06;4993305;28;20475;-69
2021/12/02 04:35:05;;;;;;;2.85;1.02;;;;;;;7.14;100.00;98574.22;4994308;28;20113;-69
2021/12/02 04:37:30;;;;;;;3.50;1.13;;;;;;;7.14;100.00;98579.53;4992226;28;20033;-69
2021/12/02 04:39:56;;;;;;;1.77;0.95;;;;;;;7.14;100.00;98579.53;4981301;28;20034;-69
2021/12/02 04:42:22;;;;;;;1.98;1.10;;;;;;;7.17;100.00;98579.38;4982697;28;20018;-69
2021/12/02 04:44:47;;;;;;;1.38;1.08;;;;;;;7.16;100.00;98572.38;4993398;28;20054;-69
2021/12/02 04:47:13;;;;;;;1.58;1.17;;;;;;;7.15;100.00;98556.59;4991209;28;20034;-69
2021/12/02 04:49:38;;;;;;;4.05;1.50;;;;;;;7.19;100.00;98572.25;4992227;28;20028;-69
2021/12/02 04:52:04;;;;;;;15.05;2.40;;;;;;;7.21;100.00;98573.06;4988114;28;20033;-69
2021/12/02 04:54:30;;;;;;;1.60;1.00;;;;;;;7.17;100.00;98576.75;4981676;28;20028;-69
2021/12/02 04:56:55;;;;;;;4.82;1.20;;;;;;;7.25;100.00;98573.78;4973153;28;20102;-69
2021/12/02 04:59:20;;;;;;;2.92;1.15;;;;;;;7.21;100.00;98570.41;4973137;28;20035;-69
2021/12/02 05:01:46;;;;;;;2.15;1.38;;;;;;;7.25;100.00;98573.78;4975741;28;20046;-69
2021/12/02 05:04:11;;;;;;;4.57;1.08;;;;;;;7.29;100.00;98573.59;4992632;28;20500;-69
2021/12/02 05:06:37;;;;;;;3.00;1.58;;;;;;;7.31;100.00;98569.09;4989573;28;20026;-69
2021/12/02 05:09:03;;;;;;;5.25;1.85;;;;;;;7.31;100.00;98576.16;4984473;28;20018;-69
2021/12/02 05:11:28;;;;;;;5.13;1.50;;;;;;;7.28;100.00;98566.56;4992148;28;20062;-69
2021/12/02 05:13:54;;;;;;;6.82;2.42;;;;;;;7.37;100.00;98576.75;4991220;28;20109;-69
2021/12/02 05:16:19;;;;;;;2.80;1.20;;;;;;;7.37;100.00;98568.84;4992680;28;20030;-69
2021/12/02 05:18:45;;;;;;;15.07;1.75;;;;;;;7.32;100.00;98548.78;4994674;28;20371;-69
2021/12/02 05:21:10;;;;;;;1.88;1.10;;;;;;;7.40;100.00;98570.47;4992277;28;20034;-69
2021/12/02 05:23:36;;;;;;;3.20;1.30;;;;;;;7.40;100.00;98566.03;4981195;28;20026;-69
2021/12/02 05:26:01;;;;;;;3.58;1.33;;;;;;;7.41;100.00;98565.09;4973122;28;20560;-69
2021/12/02 05:28:26;;;;;;;2.72;1.50;;;;;;;7.44;100.00;98562.34;4972834;28;20027;-69
2021/12/02 05:30:52;;;;;;;2.85;1.48;;;;;;;7.34;100.00;98553.09;4973838;28;20062;-69
2021/12/02 05:33:18;;;;;;;2.75;1.55;;;;;;;7.33;100.00;98553.16;4984413;28;20465;-68
2021/12/02 05:35:44;;;;;;;6.25;1.67;;;;;;;7.39;100.00;98571.41;4992269;28;20661;-68
2021/12/02 05:38:10;;;;;;;4.45;1.67;;;;;;;7.42;100.00;98574.78;4991330;28;20026;-68
2021/12/02 05:40:35;;;;;;;10.70;2.25;;;;;;;7.38;100.00;98559.13;4989045;28;20394;-68
2021/12/02 05:43:01;;;;;;;2.83;1.88;;;;;;;7.51;100.00;98562.94;4986099;28;20037;-68
2021/12/02 05:45:27;;;;;;;6.35;2.35;;;;;;;7.42;100.00;98564.19;4991942;28;20038;-68
2021/12/02 05:47:53;;;;;;;1.95;1.60;;;;;;;7.29;100.00;98562.13;4992922;28;20030;-68
2021/12/02 05:50:19;;;;;;;2.90;1.58;;;;;;;7.27;100.00;98559.56;4986187;28;20037;-69
2021/12/02 05:52:45;;;;;;;4.30;1.73;;;;;;;7.27;100.00;98543.69;4975983;28;20031;-69
2021/12/02 05:55:11;;;;;;;7.32;3.00;;;;;;;7.31;100.00;98561.16;4972288;28;20081;-69
2021/12/02 05:57:36;;;;;;;9.70;3.97;;;;;;;7.37;100.00;98544.16;4972568;28;20019;-69
2021/12/02 06:00:04;;;;;;;5.70;2.53;;;;;;;7.27;100.00;98532.25;4975360;28;20031;-68
2021/12/02 06:02:30;;;;;;;5.00;2.00;;;;;;;7.20;100.00;98533.47;4978556;28;20096;-68
2021/12/02 06:04:55;;;;;;;6.30;1.67;;;;;;;7.16;100.00;98551.25;4971773;28;20035;-68
2021/12/02 06:07:20;;;;;;;5.40;1.90;;;;;;;7.10;100.00;98546.19;4974715;28;20059;-68
2021/12/02 06:09:47;;;;;;;4.80;1.67;;;;;;;7.19;100.00;98553.75;4988943;28;20686;-68
2021/12/02 06:12:13;;;;;;;4.13;2.17;;;;;;;7.10;100.00;98551.47;4990320;28;20054;-68
2021/12/02 06:14:39;;;;;;;10.45;3.22;;;;;;;7.14;100.00;98561.00;4982480;28;20026;-68
2021/12/02 06:17:05;;;;;;;6.93;2.78;;;;;;;7.13;100.00;98558.44;4990955;28;20712;-70
2021/12/02 06:19:30;;;;;;;3.00;1.98;;;;;;;7.16;100.00;98568.88;4982827;28;20033;-69
2021/12/02 06:21:57;;;;;;;5.10;2.53;;;;;;;7.10;100.00;98555.94;4989611;28;20029;-69
2021/12/02 06:24:29;;;;;;;3.65;2.00;;;;;;;7.20;100.00;98555.44;4991071;28;20490;-69
2021/12/02 06:26:56;;;;;;;4.10;2.03;;;;;;;7.20;100.00;98568.66;4992144;28;20066;-69
2021/12/02 06:29:21;;;;;;;8.57;2.67;;;;;;;7.21;100.00;98565.13;4993385;28;20083;-69
2021/12/02 06:31:47;;;;;;;54.75;9.38;;;;;;;7.27;100.00;98569.28;4972944;28;20035;-69
2021/12/02 06:34:12;;;;;;;13.18;2.80;;;;;;;7.30;100.00;98569.13;4995557;28;20032;-69
2021/12/02 06:36:38;;;;;;;7.72;3.80;;;;;;;7.28;100.00;98571.84;4982878;28;20134;-69
2021/12/02 06:39:04;;;;;;;9.65;4.40;;;;;;;7.18;100.00;98570.50;4988887;28;20593;-69
2021/12/02 06:41:30;;;;;;;14.07;6.93;;;;;;;7.15;100.00;98564.53;4986176;28;20137;-69
2021/12/02 06:43:56;;;;;;;16.45;5.90;;;;;;;7.13;100.00;98561.94;4988509;28;20430;-69
2021/12/02 06:46:21;;;;;;;10.25;4.78;;;;;;;7.17;100.00;98562.66;4990608;28;20041;-69
2021/12/02 06:48:48;;;;;;;9.98;3.60;;;;;;;7.22;100.00;98556.25;4990597;28;20026;-68
2021/12/02 06:51:15;;;;;;;7.60;5.53;;;;;;;7.16;100.00;98540.66;4987661;28;20141;-68
2021/12/02 06:53:40;;;;;;;6.07;3.13;;;;;;;7.24;100.00;98551.78;4993589;28;20382;-69
2021/12/02 06:56:06;;;;;;;9.75;3.42;;;;;;;7.21;100.00;98548.38;4988284;28;20069;-68
2021/12/02 06:58:32;;;;;;;11.13;4.57;;;;;;;7.20;100.00;98552.81;4990176;28;20026;-68
2021/12/02 07:00:58;;;;;;;7.18;3.97;;;;;;;7.14;100.00;98552.22;4990406;28;20033;-69
2021/12/02 07:03:23;;;;;;;7.55;3.22;;;;;;;7.11;100.00;98550.56;4990606;28;20457;-69
2021/12/02 07:05:49;;;;;;;5.65;2.08;;;;;;;7.09;100.00;98551.53;4990927;28;20026;-69
2021/12/02 07:08:14;;;;;;;2.95;1.65;;;;;;;7.05;100.00;98545.53;4987204;28;20026;-69
2021/12/02 07:10:40;;;;;;;3.17;2.15;;;;;;;7.02;100.00;98558.03;4988112;28;20037;-68
2021/12/02 07:13:06;;;;;;;3.22;1.90;;;;;;;6.95;100.00;98543.34;4984507;28;20073;-68
2021/12/02 07:15:34;;;;;;;3.08;1.90;;;;;;;6.98;100.00;98557.28;4991200;28;20494;-68
2021/12/02 07:18:01;;;;;;;5.75;2.35;;;;;;;6.95;100.00;98557.44;4988753;28;20014;-68
2021/12/02 07:20:30;;;;;;;2.90;1.50;;;;;;;6.93;100.00;98559.25;4991066;28;20026;-68
2021/12/02 07:22:57;;;;;;;4.43;1.92;;;;;;;6.96;100.00;98568.84;4990622;28;20093;-68
2021/12/02 07:25:23;;;;;;;4.10;2.00;;;;;;;6.96;100.00;98564.41;4985866;28;20030;-68
2021/12/02 07:27:48;;;;;;;5.65;2.15;;;;;;;7.09;100.00;98576.19;4986937;28;20504;-69
2021/12/02 07:30:15;;;;;;;5.97;3.05;;;;;;;7.12;100.00;98578.72;4986825;28;20102;-68
2021/12/02 07:32:41;;;;;;;3.08;2.03;;;;;;;7.10;100.00;98577.91;4978420;28;20027;-68
2021/12/02 07:35:13;;;;;;;4.50;2.42;;;;;;;6.98;100.00;98559.94;4984768;28;20026;-68
2021/12/02 07:37:45;;;;;;;4.82;2.60;;;;;;;6.98;100.00;98578.44;4982495;28;20027;-68
2021/12/02 07:40:12;;;;;;;8.25;3.20;;;;;;;7.04;100.00;98588.75;4980078;28;20501;-68
2021/12/02 07:42:37;;;;;;;5.18;2.58;;;;;;;7.02;100.00;98574.72;4979301;28;20039;-68
2021/12/02 07:45:05;;;;;;;5.45;2.63;;;;;;;7.02;100.00;98580.00;4990539;28;20041;-68
2021/12/02 07:47:33;;;;;;;5.18;2.63;;;;;;;7.02;100.00;98581.81;4988022;28;20033;-68
2021/12/02 07:49:59;;;;;;;3.40;2.10;;;;;;;7.03;100.00;98589.69;4990269;28;20170;-68
2021/12/02 07:52:25;;;;;;;6.05;2.72;;;;;;;7.03;100.00;98581.75;4991756;28;20113;-68
2021/12/02 07:54:52;;;;;;;6.97;2.60;;;;;;;7.08;100.00;98579.78;4992979;28;20030;-68
2021/12/02 07:57:19;;;;;;;5.53;2.40;;;;;;;7.11;100.00;98602.56;4986625;28;20141;-67
2021/12/02 07:59:48;;;;;;;5.85;2.70;;;;;;;7.09;100.00;98593.84;4990527;28;20030;-67
2021/12/02 08:02:15;;;;;;;7.60;4.20;;;;;;;7.14;100.00;98590.09;4989067;28;20030;-67
2021/12/02 08:04:41;;;;;;;8.63;5.88;;;;;;;7.15;100.00;98583.88;4988266;28;20057;-67
2021/12/02 08:07:06;;;;;;;5.03;2.83;;;;;;;7.11;100.00;98584.94;4987283;28;20465;-67
2021/12/02 08:09:32;;;;;;;5.70;4.05;;;;;;;7.20;100.00;98595.13;4990753;28;20062;-67
2021/12/02 08:11:59;;;;;;;6.65;2.90;;;;;;;7.22;100.00;98601.22;4989010;28;20088;-67
2021/12/02 08:14:25;;;;;;;3.45;2.38;;;;;;;7.23;100.00;98594.97;4987227;28;20109;-67
2021/12/02 08:16:51;;;;;;;3.80;2.80;;;;;;;7.24;100.00;98596.72;4989953;28;20038;-67
2021/12/02 08:19:17;;;;;;;3.83;2.53;;;;;;;7.17;100.00;98578.50;4985008;28;20957;-67
2021/12/02 08:21:42;;;;;;;4.20;2.38;;;;;;;7.27;100.00;98596.59;4990684;28;20581;-67
2021/12/02 08:24:08;;;;;;;4.78;2.53;;;;;;;7.29;100.00;98600.03;4989048;28;20054;-67
2021/12/02 08:26:34;;;;;;;7.82;2.67;;;;;;;7.28;100.00;98600.09;4988202;28;20027;-67
2021/12/02 08:29:01;;;;;;;4.22;2.10;;;;;;;7.21;100.00;98606.56;4986528;28;20034;-68
2021/12/02 08:31:27;;;;;;;2.85;1.58;;;;;;;7.14;100.00;98607.72;4988450;28;20018;-68
2021/12/02 08:33:54;;;;;;;2.15;1.65;;;;;;;7.20;100.00;98616.28;4995612;28;20041;-68
2021/12/02 08:36:23;;;;;;;4.13;1.40;;;;;;;7.19;100.00;98625.13;4986226;28;20046;-68
2021/12/02 08:38:49;;;;;;;2.60;1.45;;;;;;;7.23;100.00;98632.00;4984591;28;20033;-67
2021/12/02 08:41:18;;;;;;;1.98;1.40;;;;;;;7.24;100.00;98641.69;4980930;28;20030;-67
2021/12/02 08:43:44;;;;;;;2.72;1.60;;;;;;;7.22;100.00;98635.59;4986330;28;20026;-67
2021/12/02 08:46:10;;;;;;;3.08;1.40;;;;;;;7.17;100.00;98637.56;4987580;28;20470;-66
2021/12/02 08:48:35;;;;;;;2.22;1.42;;;;;;;7.07;100.00;98630.06;4991785;28;20042;-66
2021/12/02 08:51:01;;;;;;;2.53;1.48;;;;;;;6.85;100.00;98640.66;4994095;28;20034;-65
2021/12/02 08:53:26;;;;;;;4.20;1.70;;;;;;;6.76;100.00;98648.06;4990955;28;20030;-65
2021/12/02 08:55:52;;;;;;;2.67;1.70;;;;;;;6.72;100.00;98644.69;4991799;28;20109;-66
2021/12/02 08:58:18;;;;;;;4.13;1.42;;;;;;;6.72;100.00;98649.97;4992126;28;20116;-68
2021/12/02 09:00:44;;;;;;;3.42;1.58;;;;;;;6.69;100.00;98642.16;4990580;28;20372;-69
2021/12/02 09:03:14;;;;;;;2.42;1.40;;;;;;;6.68;100.00;98640.44;4991016;28;20084;-69
2021/12/02 09:05:39;;;;;;;3.05;1.45;;;;;;;6.72;100.00;98640.25;4989326;28;20041;-68
2021/12/02 09:08:05;;;;;;;4.72;2.03;;;;;;;6.77;100.00;98661.19;4986918;28;20030;-68
2021/12/02 09:10:32;;;;;;;3.15;1.52;;;;;;;6.68;100.00;98643.94;4989439;28;20026;-68
2021/12/02 09:12:58;;;;;;;2.15;1.80;;;;;;;6.59;100.00;98654.84;4991178;28;20057;-68
2021/12/02 09:15:24;;;;;;;7.45;2.90;;;;;;;6.58;100.00;98662.84;4989236;28;20026;-68
2021/12/02 09:17:50;;;;;;;4.28;2.10;;;;;;;6.66;100.00;98668.69;4994538;28;20022;-68
2021/12/02 09:20:16;;;;;;;2.15;1.63;;;;;;;6.69;100.00;98665.91;4991223;28;20041;-68
2021/12/02 09:22:43;;;;;;;6.38;1.98;;;;;;;6.74;100.00;98669.25;4982291;28;20034;-68
2021/12/02 09:25:10;;;;;;;3.15;1.45;;;;;;;6.71;100.00;98669.38;4992114;28;20026;-68
2021/12/02 09:27:36;;;;;;;3.60;3.28;;;;;;;6.70;100.00;98672.94;4989673;28;20074;-68
2021/12/02 09:30:03;;;;;;;1.70;1.17;;;;;;;6.76;100.00;98667.41;4984183;28;20034;-68
2021/12/02 09:32:29;;;;;;;1.80;1.17;;;;;;;6.63;100.00;98659.13;4991717;28;20034;-67
2021/12/02 09:34:54;;;;;;;3.05;1.50;;;;;;;6.80;100.00;98679.59;4982522;28;20198;-67
2021/12/02 09:37:20;;;;;;;5.10;1.73;;;;;;;6.86;100.00;98674.06;4974149;28;20559;-67
2021/12/02 09:39:45;;;;;;;2.75;1.65;;;;;;;6.82;100.00;98656.59;4974551;28;20509;-66
2021/12/02 09:42:10;;;;;;;2.80;1.40;;;;;;;6.88;100.00;98677.53;4981653;28;20092;-66
2021/12/02 09:44:44;;;;;;;2.83;1.50;;;;;;;6.92;100.00;98676.47;4991876;28;20474;-66
2021/12/02 09:47:09;;;;;;;2.03;1.40;;;;;;;6.97;100.00;98687.72;4991808;28;20095;-66
2021/12/02 09:49:35;;;;;;;2.97;1.55;;;;;;;6.93;100.00;98683.50;4990761;28;20038;-66
2021/12/02 09:52:08;;;;;;;2.47;1.38;;;;;;;6.91;100.00;98677.41;4982211;28;20039;-66
2021/12/02 09:54:44;;;;;;;3.38;1.80;;;;;;;7.11;100.00;98695.97;4994387;28;20023;-66
2021/12/02 09:57:14;;;;;;;6.90;3.00;;;;;;;7.09;100.00;98681.94;4985482;28;20031;-66
2021/12/02 09:59:49;;;;;;;6.72;3.05;;;;;;;7.19;100.00;98699.19;4977568;28;20038;-66
2021/12/02 10:02:18;;;;;;;11.13;5.65;;;;;;;7.23;100.00;98695.47;4972328;28;20119;-66
2021/12/02 10:04:56;;;;;;;4.55;2.35;;;;;;;7.25;100.00;98692.78;4972991;28;20022;-66
2021/12/02 10:12:31;;;;;;;8.25;4.57;;;;;;;7.31;100.00;98696.03;4991515;28;20138;-66
2021/12/02 10:14:59;;;;;;;6.20;3.10;;;;;;;7.39;100.00;98690.44;4990558;28;20040;-66
2021/12/02 10:17:38;;;;;;;4.10;2.50;;;;;;;7.46;100.00;98692.75;4988179;28;20493;-66
2021/12/02 10:20:15;;;;;;;3.33;1.90;;;;;;;7.50;100.00;98688.19;4972488;28;20078;-66
2021/12/02 10:22:45;;;;;;;5.40;3.08;;;;;;;7.50;100.00;98686.41;4974599;28;20030;-66
2021/12/02 10:25:11;;;;;;;3.05;1.80;;;;;;;7.51;100.00;98690.78;4971459;28;20113;-66
2021/12/02 10:28:05;;;;;;;5.80;2.22;;;;;;;7.37;100.00;98681.69;4986704;28;20117;-66
2021/12/02 10:30:31;;;;;;;4.78;2.00;;;;;;;7.33;100.00;98680.94;5002121;28;20056;-66
2021/12/02 10:32:57;;;;;;;6.80;2.47;;;;;;;7.43;100.00;98682.31;5010510;28;20033;-66
2021/12/02 10:35:43;;;;;;;5.60;2.78;;;;;;;7.45;100.00;98680.47;4980781;28;20682;-66
2021/12/02 10:38:41;;;;;;;6.35;2.47;;;;;;;7.59;100.00;98680.75;4980719;28;21520;-66
2021/12/02 10:41:24;;;;;;;3.97;2.30;;;;;;;7.67;100.00;98681.28;4990885;28;20030;-66
2021/12/02 10:44:14;;;;;;;5.13;2.58;;;;;;;7.74;100.00;98672.16;4971538;28;20673;-66
2021/12/02 10:46:53;;;;;;;6.65;2.63;;;;;;;7.81;100.00;98678.03;4972063;28;20050;-66
2021/12/02 10:49:19;;;;;;;5.80;2.83;;;;;;;7.84;100.00;98677.94;4979270;28;20070;-66
2021/12/02 10:51:50;;;;;;;5.95;2.65;;;;;;;7.78;100.00;98681.69;4991013;28;20026;-66
2021/12/02 10:54:19;;;;;;;5.65;3.15;;;;;;;7.67;100.00;98678.66;4983895;28;20414;-66
2021/12/02 10:56:57;;;;;;;4.35;2.35;;;;;;;7.57;100.00;98671.16;4988156;28;20038;-66
2021/12/02 10:59:39;;;;;;;5.50;2.40;;;;;;;7.56;100.00;98678.22;4988779;28;20034;-66
2021/12/02 11:02:08;;;;;;;5.63;2.22;;;;;;;7.54;100.00;98685.38;4976490;28;20054;-66
2021/12/02 11:04:42;;;;;;;5.20;3.15;;;;;;;7.53;100.00;98672.19;4970582;28;20202;-67
2021/12/02 11:07:13;;;;;;;3.92;2.15;;;;;;;7.55;100.00;98680.94;4986143;28;20031;-67
2021/12/02 11:09:40;;;;;;;3.97;2.20;;;;;;;7.58;100.00;98673.72;4992645;28;20023;-67
2021/12/02 11:12:08;;;;;;;4.40;2.10;;;;;;;7.66;100.00;98682.19;4990785;28;20044;-67
2021/12/02 11:14:41;;;;;;;7.15;2.95;;;;;;;7.57;100.00;98672.03;4990032;28;20549;-67
2021/12/02 11:17:12;;;;;;;6.07;4.53;;;;;;;7.58;100.00;98676.38;4989257;28;20077;-68
2021/12/02 11:19:40;;;;;;;4.13;2.28;;;;;;;7.59;100.00;98672.81;4992359;28;20037;-67
2021/12/02 11:22:08;;;;;;;5.60;2.53;;;;;;;7.50;100.00;98673.19;5002224;28;20022;-67
2021/12/02 11:24:34;;;;;;;3.22;1.90;;;;;;;7.50;100.00;98681.13;5014597;28;20026;-67
2021/12/02 11:27:12;;;;;;;2.92;1.73;;;;;;;7.49;100.00;98681.19;5002006;28;20037;-67
2021/12/02 11:29:51;;;;;;;3.60;2.00;;;;;;;7.53;100.00;98688.06;4979784;28;20045;-67
2021/12/02 11:32:32;;;;;;;4.20;2.83;;;;;;;7.57;100.00;98679.97;4974857;28;20058;-67
2021/12/02 11:34:59;;;;;;;4.93;2.35;;;;;;;7.37;100.00;98674.63;4987214;28;20026;-67
2021/12/02 11:37:25;;;;;;;3.65;2.10;;;;;;;7.43;100.00;98682.31;4977890;28;20031;-67
2021/12/02 11:39:53;;;;;;;3.08;1.50;;;;;;;7.28;100.00;98696.16;4988162;28;20550;-67
2021/12/02 11:42:19;;;;;;;6.38;2.08;;;;;;;7.09;100.00;98687.25;4992439;28;20026;-67
2021/12/02 11:44:45;;;;;;;4.75;2.50;;;;;;;7.20;100.00;98689.47;4987087;28;20049;-67
2021/12/02 11:47:11;;;;;;;2.67;1.67;;;;;;;7.29;100.00;98687.31;4991605;28;20163;-67
2021/12/02 11:49:37;;;;;;;5.70;3.38;;;;;;;7.18;100.00;98686.84;4994900;28;20487;-67
2021/12/02 11:52:02;;;;;;;4.38;1.77;;;;;;;7.29;100.00;98689.94;4991583;28;20033;-67